sensor_id;sensor_type;location;lat;lon;timestamp;temperature;humidity
69031;DHT22;56083;48.774;8.942;2022-07-24T00:01:32;18.90;99.90
69031;DHT22;56083;48.774;8.942;2022-07-24T00:03:58;18.90;99.90
69031;DHT22;56083;48.774;8.942;2022-07-24T00:06:24;18.90;99.90
69031;DHT22;56083;48.774;8.942;2022-07-24T00:08:49;19.00;99.90
69031;DHT22;56083;48.774;8.942;2022-07-24T00:11:15;19.00;99.90
69031;DHT22;56083;48.774;8.942;2022-07-24T00:13:42;19.00;99.90
69031;DHT22;56083;48.774;8.942;2022-07-24T00:16:08;19.00;99.90
69031;DHT22;56083;48.774;8.942;2022-07-24T00:18:34;19.00;99.90
69031;DHT22;56083;48.774;8.942;2022-07-24T00:21:00;19.00;99.90
69031;DHT22;56083;48.774;8.942;2022-07-24T00:23:26;19.00;99.90
69031;DHT22;56083;48.774;8.942;2022-07-24T00:25:53;19.00;99.90
69031;DHT22;56083;48.774;8.942;2022-07-24T00:28:19;19.00;99.90
69031;DHT22;56083;48.774;8.942;2022-07-24T00:30:45;19.00;99.90
69031;DHT22;56083;48.774;8.942;2022-07-24T00:33:11;19.00;99.90
69031;DHT22;56083;48.774;8.942;2022-07-24T00:35:37;18.90;99.90
69031;DHT22;56083;48.774;8.942;2022-07-24T00:38:04;18.90;99.90
69031;DHT22;56083;48.774;8.942;2022-07-24T00:40:30;18.90;99.90
69031;DHT22;56083;48.774;8.942;2022-07-24T00:42:57;18.90;99.90
69031;DHT22;56083;48.774;8.942;2022-07-24T00:45:23;18.90;99.90
69031;DHT22;56083;48.774;8.942;2022-07-24T00:47:49;18.80;99.90
69031;DHT22;56083;48.774;8.942;2022-07-24T00:50:15;18.80;99.90
69031;DHT22;56083;48.774;8.942;2022-07-24T00:52:42;18.80;99.90
69031;DHT22;56083;48.774;8.942;2022-07-24T00:55:10;18.80;99.90
69031;DHT22;56083;48.774;8.942;2022-07-24T00:57:36;18.80;99.90
69031;DHT22;56083;48.774;8.942;2022-07-24T01:00:06;18.80;99.90
69031;DHT22;56083;48.774;8.942;2022-07-24T01:02:33;18.80;99.90
69031;DHT22;56083;48.774;8.942;2022-07-24T01:04:58;18.80;99.90
69031;DHT22;56083;48.774;8.942;2022-07-24T01:07:24;18.80;99.90
69031;DHT22;56083;48.774;8.942;2022-07-24T01:09:50;18.70;99.90
69031;DHT22;56083;48.774;8.942;2022-07-24T01:12:17;18.70;99.90
69031;DHT22;56083;48.774;8.942;2022-07-24T01:14:43;18.60;99.90
69031;DHT22;56083;48.774;8.942;2022-07-24T01:17:08;18.60;99.90
69031;DHT22;56083;48.774;8.942;2022-07-24T01:19:34;18.60;99.90
69031;DHT22;56083;48.774;8.942;2022-07-24T01:22:00;18.60;99.90
69031;DHT22;56083;48.774;8.942;2022-07-24T01:24:25;18.60;99.90
69031;DHT22;56083;48.774;8.942;2022-07-24T01:26:51;18.50;99.90
69031;DHT22;56083;48.774;8.942;2022-07-24T01:29:17;18.50;99.90
69031;DHT22;56083;48.774;8.942;2022-07-24T01:31:43;18.50;99.90
69031;DHT22;56083;48.774;8.942;2022-07-24T01:34:08;18.50;99.90
69031;DHT22;56083;48.774;8.942;2022-07-24T01:36:34;18.40;99.90
69031;DHT22;56083;48.774;8.942;2022-07-24T01:39:00;18.30;99.90
69031;DHT22;56083;48.774;8.942;2022-07-24T01:41:25;18.20;99.90
69031;DHT22;56083;48.774;8.942;2022-07-24T01:43:51;18.10;99.90
69031;DHT22;56083;48.774;8.942;2022-07-24T01:46:17;18.00;99.90
69031;DHT22;56083;48.774;8.942;2022-07-24T01:48:43;17.90;99.90
69031;DHT22;56083;48.774;8.942;2022-07-24T01:51:09;17.90;99.90
69031;DHT22;56083;48.774;8.942;2022-07-24T01:53:36;17.80;99.90
69031;DHT22;56083;48.774;8.942;2022-07-24T01:56:02;17.80;99.90
69031;DHT22;56083;48.774;8.942;2022-07-24T01:58:27;17.80;99.90
69031;DHT22;56083;48.774;8.942;2022-07-24T02:00:53;17.70;99.90
69031;DHT22;56083;48.774;8.942;2022-07-24T02:03:19;17.70;99.90
69031;DHT22;56083;48.774;8.942;2022-07-24T02:05:46;17.60;99.90
69031;DHT22;56083;48.774;8.942;2022-07-24T02:08:12;17.50;99.90
69031;DHT22;56083;48.774;8.942;2022-07-24T02:10:37;17.50;99.90
69031;DHT22;56083;48.774;8.942;2022-07-24T02:13:04;17.50;99.90
69031;DHT22;56083;48.774;8.942;2022-07-24T02:15:30;17.40;99.90
69031;DHT22;56083;48.774;8.942;2022-07-24T02:17:57;17.30;99.90
69031;DHT22;56083;48.774;8.942;2022-07-24T02:20:23;17.30;99.90
69031;DHT22;56083;48.774;8.942;2022-07-24T02:22:49;17.20;99.90
69031;DHT22;56083;48.774;8.942;2022-07-24T02:25:15;17.20;99.90
69031;DHT22;56083;48.774;8.942;2022-07-24T02:27:41;17.30;99.90
69031;DHT22;56083;48.774;8.942;2022-07-24T02:30:10;17.30;99.90
69031;DHT22;56083;48.774;8.942;2022-07-24T02:32:37;17.30;99.90
69031;DHT22;56083;48.774;8.942;2022-07-24T02:35:03;17.30;99.90
69031;DHT22;56083;48.774;8.942;2022-07-24T02:37:29;17.30;99.90
69031;DHT22;56083;48.774;8.942;2022-07-24T02:39:55;17.30;99.90
69031;DHT22;56083;48.774;8.942;2022-07-24T02:42:20;17.30;99.90
69031;DHT22;56083;48.774;8.942;2022-07-24T02:44:46;17.40;99.90
69031;DHT22;56083;48.774;8.942;2022-07-24T02:47:12;17.40;99.90
69031;DHT22;56083;48.774;8.942;2022-07-24T02:49:37;17.40;99.90
69031;DHT22;56083;48.774;8.942;2022-07-24T02:52:03;17.30;99.90
69031;DHT22;56083;48.774;8.942;2022-07-24T02:54:29;17.30;99.90
69031;DHT22;56083;48.774;8.942;2022-07-24T02:56:54;17.30;99.90
69031;DHT22;56083;48.774;8.942;2022-07-24T02:59:20;17.20;99.90
69031;DHT22;56083;48.774;8.942;2022-07-24T03:01:46;17.20;99.90
69031;DHT22;56083;48.774;8.942;2022-07-24T03:04:11;17.10;99.90
69031;DHT22;56083;48.774;8.942;2022-07-24T03:06:37;17.10;99.90
69031;DHT22;56083;48.774;8.942;2022-07-24T03:09:03;17.00;99.90
69031;DHT22;56083;48.774;8.942;2022-07-24T03:11:29;16.90;99.90
69031;DHT22;56083;48.774;8.942;2022-07-24T03:13:55;16.90;99.90
69031;DHT22;56083;48.774;8.942;2022-07-24T03:16:20;16.90;99.90
69031;DHT22;56083;48.774;8.942;2022-07-24T03:18:46;16.80;99.90
69031;DHT22;56083;48.774;8.942;2022-07-24T03:21:14;16.80;99.90
69031;DHT22;56083;48.774;8.942;2022-07-24T03:23:40;16.80;99.90
69031;DHT22;56083;48.774;8.942;2022-07-24T03:26:07;16.80;99.90
69031;DHT22;56083;48.774;8.942;2022-07-24T03:28:33;16.70;99.90
69031;DHT22;56083;48.774;8.942;2022-07-24T03:30:59;16.60;99.90
69031;DHT22;56083;48.774;8.942;2022-07-24T03:33:26;16.60;99.90
69031;DHT22;56083;48.774;8.942;2022-07-24T03:35:52;16.50;99.90
69031;DHT22;56083;48.774;8.942;2022-07-24T03:38:17;16.50;99.90
69031;DHT22;56083;48.774;8.942;2022-07-24T03:40:43;16.40;99.90
69031;DHT22;56083;48.774;8.942;2022-07-24T03:43:09;16.40;99.90
69031;DHT22;56083;48.774;8.942;2022-07-24T03:45:34;16.40;99.90
69031;DHT22;56083;48.774;8.942;2022-07-24T03:48:00;16.30;99.90
69031;DHT22;56083;48.774;8.942;2022-07-24T03:50:26;16.40;99.90
69031;DHT22;56083;48.774;8.942;2022-07-24T03:52:51;16.30;99.90
69031;DHT22;56083;48.774;8.942;2022-07-24T03:55:17;16.30;99.90
69031;DHT22;56083;48.774;8.942;2022-07-24T03:57:43;16.40;99.90
69031;DHT22;56083;48.774;8.942;2022-07-24T04:00:09;16.40;99.90
69031;DHT22;56083;48.774;8.942;2022-07-24T04:02:35;16.50;99.90
69031;DHT22;56083;48.774;8.942;2022-07-24T04:05:01;16.50;99.90
69031;DHT22;56083;48.774;8.942;2022-07-24T04:07:27;16.50;99.90
69031;DHT22;56083;48.774;8.942;2022-07-24T04:09:53;16.50;99.90
69031;DHT22;56083;48.774;8.942;2022-07-24T04:12:19;16.50;99.90
69031;DHT22;56083;48.774;8.942;2022-07-24T04:14:45;16.50;99.90
69031;DHT22;56083;48.774;8.942;2022-07-24T04:17:11;16.50;99.90
69031;DHT22;56083;48.774;8.942;2022-07-24T04:19:37;16.50;99.90
69031;DHT22;56083;48.774;8.942;2022-07-24T04:22:03;16.60;99.90
69031;DHT22;56083;48.774;8.942;2022-07-24T04:24:28;16.50;99.90
69031;DHT22;56083;48.774;8.942;2022-07-24T04:26:54;16.50;99.90
69031;DHT22;56083;48.774;8.942;2022-07-24T04:29:19;16.60;99.90
69031;DHT22;56083;48.774;8.942;2022-07-24T04:31:45;16.60;99.90
69031;DHT22;56083;48.774;8.942;2022-07-24T04:34:11;16.60;99.90
69031;DHT22;56083;48.774;8.942;2022-07-24T04:36:36;16.70;99.90
69031;DHT22;56083;48.774;8.942;2022-07-24T04:39:02;16.70;99.90
69031;DHT22;56083;48.774;8.942;2022-07-24T04:41:28;16.80;99.90
69031;DHT22;56083;48.774;8.942;2022-07-24T04:43:55;16.90;99.90
69031;DHT22;56083;48.774;8.942;2022-07-24T04:46:20;17.00;99.90
69031;DHT22;56083;48.774;8.942;2022-07-24T04:48:46;17.10;99.90
69031;DHT22;56083;48.774;8.942;2022-07-24T04:51:12;17.20;99.90
69031;DHT22;56083;48.774;8.942;2022-07-24T04:53:37;17.20;99.90
69031;DHT22;56083;48.774;8.942;2022-07-24T04:56:03;17.20;99.90
69031;DHT22;56083;48.774;8.942;2022-07-24T04:58:29;17.30;99.90
69031;DHT22;56083;48.774;8.942;2022-07-24T05:00:55;17.30;99.90
69031;DHT22;56083;48.774;8.942;2022-07-24T05:03:20;17.40;99.90
69031;DHT22;56083;48.774;8.942;2022-07-24T05:05:46;17.50;99.90
69031;DHT22;56083;48.774;8.942;2022-07-24T05:08:11;17.60;99.90
69031;DHT22;56083;48.774;8.942;2022-07-24T05:10:37;17.70;99.90
69031;DHT22;56083;48.774;8.942;2022-07-24T05:13:03;17.80;99.90
69031;DHT22;56083;48.774;8.942;2022-07-24T05:15:28;17.90;99.90
69031;DHT22;56083;48.774;8.942;2022-07-24T05:17:54;18.00;99.90
69031;DHT22;56083;48.774;8.942;2022-07-24T05:20:20;18.10;99.90
69031;DHT22;56083;48.774;8.942;2022-07-24T05:22:45;18.10;99.90
69031;DHT22;56083;48.774;8.942;2022-07-24T05:25:11;18.30;99.90
69031;DHT22;56083;48.774;8.942;2022-07-24T05:27:37;18.40;99.90
69031;DHT22;56083;48.774;8.942;2022-07-24T05:30:04;18.50;99.90
69031;DHT22;56083;48.774;8.942;2022-07-24T05:32:30;18.70;99.90
69031;DHT22;56083;48.774;8.942;2022-07-24T05:34:57;18.70;99.90
69031;DHT22;56083;48.774;8.942;2022-07-24T05:37:23;18.90;99.90
69031;DHT22;56083;48.774;8.942;2022-07-24T05:39:48;19.00;99.90
69031;DHT22;56083;48.774;8.942;2022-07-24T05:42:14;19.20;99.90
69031;DHT22;56083;48.774;8.942;2022-07-24T05:44:39;19.30;99.90
69031;DHT22;56083;48.774;8.942;2022-07-24T05:47:05;19.50;99.90
69031;DHT22;56083;48.774;8.942;2022-07-24T05:49:31;19.60;99.90
69031;DHT22;56083;48.774;8.942;2022-07-24T05:51:57;19.70;99.90
69031;DHT22;56083;48.774;8.942;2022-07-24T05:54:23;19.90;99.90
69031;DHT22;56083;48.774;8.942;2022-07-24T05:56:49;20.00;99.90
69031;DHT22;56083;48.774;8.942;2022-07-24T05:59:14;20.20;99.90
69031;DHT22;56083;48.774;8.942;2022-07-24T06:01:40;20.40;99.90
69031;DHT22;56083;48.774;8.942;2022-07-24T06:04:06;20.60;99.90
69031;DHT22;56083;48.774;8.942;2022-07-24T06:06:32;20.70;99.90
69031;DHT22;56083;48.774;8.942;2022-07-24T06:08:57;20.80;99.90
69031;DHT22;56083;48.774;8.942;2022-07-24T06:11:23;21.00;99.90
69031;DHT22;56083;48.774;8.942;2022-07-24T06:13:49;21.10;99.90
69031;DHT22;56083;48.774;8.942;2022-07-24T06:16:15;21.20;99.90
69031;DHT22;56083;48.774;8.942;2022-07-24T06:18:41;21.30;99.90
69031;DHT22;56083;48.774;8.942;2022-07-24T06:21:07;21.50;99.90
69031;DHT22;56083;48.774;8.942;2022-07-24T06:23:32;21.70;99.90
69031;DHT22;56083;48.774;8.942;2022-07-24T06:25:59;21.80;99.90
69031;DHT22;56083;48.774;8.942;2022-07-24T06:28:26;22.00;99.90
69031;DHT22;56083;48.774;8.942;2022-07-24T06:30:51;22.20;99.90
69031;DHT22;56083;48.774;8.942;2022-07-24T06:33:17;22.40;99.90
69031;DHT22;56083;48.774;8.942;2022-07-24T06:35:43;22.60;99.90
69031;DHT22;56083;48.774;8.942;2022-07-24T06:38:08;22.80;99.90
69031;DHT22;56083;48.774;8.942;2022-07-24T06:40:35;23.10;99.90
69031;DHT22;56083;48.774;8.942;2022-07-24T06:43:02;23.30;99.90
69031;DHT22;56083;48.774;8.942;2022-07-24T06:45:28;23.60;99.90
69031;DHT22;56083;48.774;8.942;2022-07-24T06:47:56;23.80;99.90
69031;DHT22;56083;48.774;8.942;2022-07-24T06:50:22;23.90;99.90
69031;DHT22;56083;48.774;8.942;2022-07-24T06:52:48;24.10;99.90
69031;DHT22;56083;48.774;8.942;2022-07-24T06:55:13;24.30;99.90
69031;DHT22;56083;48.774;8.942;2022-07-24T06:57:39;24.50;99.90
69031;DHT22;56083;48.774;8.942;2022-07-24T07:00:08;24.80;99.90
69031;DHT22;56083;48.774;8.942;2022-07-24T07:02:35;25.00;99.90
69031;DHT22;56083;48.774;8.942;2022-07-24T07:05:00;25.30;99.90
69031;DHT22;56083;48.774;8.942;2022-07-24T07:07:26;25.60;99.90
69031;DHT22;56083;48.774;8.942;2022-07-24T07:09:52;26.00;99.90
69031;DHT22;56083;48.774;8.942;2022-07-24T07:12:17;26.10;99.90
69031;DHT22;56083;48.774;8.942;2022-07-24T07:14:43;26.30;99.90
69031;DHT22;56083;48.774;8.942;2022-07-24T07:17:09;26.70;99.90
69031;DHT22;56083;48.774;8.942;2022-07-24T07:19:34;27.10;99.90
69031;DHT22;56083;48.774;8.942;2022-07-24T07:22:00;27.70;99.90
69031;DHT22;56083;48.774;8.942;2022-07-24T07:24:26;28.20;99.90
69031;DHT22;56083;48.774;8.942;2022-07-24T07:26:51;28.50;99.90
69031;DHT22;56083;48.774;8.942;2022-07-24T07:29:17;28.60;99.90
69031;DHT22;56083;48.774;8.942;2022-07-24T07:31:43;29.20;99.90
69031;DHT22;56083;48.774;8.942;2022-07-24T07:34:09;29.90;99.90
69031;DHT22;56083;48.774;8.942;2022-07-24T07:36:35;30.20;99.90
69031;DHT22;56083;48.774;8.942;2022-07-24T07:39:01;30.30;99.90
69031;DHT22;56083;48.774;8.942;2022-07-24T07:41:26;30.30;99.90
69031;DHT22;56083;48.774;8.942;2022-07-24T07:43:52;30.10;99.90
69031;DHT22;56083;48.774;8.942;2022-07-24T07:46:18;30.00;99.90
69031;DHT22;56083;48.774;8.942;2022-07-24T07:48:44;30.10;99.90
69031;DHT22;56083;48.774;8.942;2022-07-24T07:51:09;29.80;99.40
69031;DHT22;56083;48.774;8.942;2022-07-24T07:53:35;29.90;99.90
69031;DHT22;56083;48.774;8.942;2022-07-24T07:56:01;29.90;97.90
69031;DHT22;56083;48.774;8.942;2022-07-24T07:58:27;30.30;97.90
69031;DHT22;56083;48.774;8.942;2022-07-24T08:00:53;30.80;97.10
69031;DHT22;56083;48.774;8.942;2022-07-24T08:03:19;30.30;95.40
69031;DHT22;56083;48.774;8.942;2022-07-24T08:05:45;30.40;95.40
69031;DHT22;56083;48.774;8.942;2022-07-24T08:08:11;30.60;95.30
69031;DHT22;56083;48.774;8.942;2022-07-24T08:10:37;31.10;93.60
69031;DHT22;56083;48.774;8.942;2022-07-24T08:13:02;31.10;92.60
69031;DHT22;56083;48.774;8.942;2022-07-24T08:15:28;31.10;91.80
69031;DHT22;56083;48.774;8.942;2022-07-24T08:17:56;31.10;91.10
69031;DHT22;56083;48.774;8.942;2022-07-24T08:20:22;31.30;91.00
69031;DHT22;56083;48.774;8.942;2022-07-24T08:22:49;32.00;89.40
69031;DHT22;56083;48.774;8.942;2022-07-24T08:25:15;33.00;85.90
69031;DHT22;56083;48.774;8.942;2022-07-24T08:27:41;33.60;83.60
69031;DHT22;56083;48.774;8.942;2022-07-24T08:30:08;34.20;80.50
69031;DHT22;56083;48.774;8.942;2022-07-24T08:32:34;34.60;77.40
69031;DHT22;56083;48.774;8.942;2022-07-24T08:35:00;35.20;75.40
69031;DHT22;56083;48.774;8.942;2022-07-24T08:37:26;35.00;73.70
69031;DHT22;56083;48.774;8.942;2022-07-24T08:39:51;34.70;70.60
69031;DHT22;56083;48.774;8.942;2022-07-24T08:42:19;35.30;69.60
69031;DHT22;56083;48.774;8.942;2022-07-24T08:44:44;35.20;67.60
69031;DHT22;56083;48.774;8.942;2022-07-24T08:47:11;35.60;67.40
69031;DHT22;56083;48.774;8.942;2022-07-24T08:49:37;36.00;65.20
69031;DHT22;56083;48.774;8.942;2022-07-24T08:52:05;36.90;62.80
69031;DHT22;56083;48.774;8.942;2022-07-24T08:54:35;37.50;60.50
69031;DHT22;56083;48.774;8.942;2022-07-24T08:57:02;37.60;59.10
69031;DHT22;56083;48.774;8.942;2022-07-24T08:59:28;37.90;58.40
69031;DHT22;56083;48.774;8.942;2022-07-24T09:01:54;38.40;58.70
69031;DHT22;56083;48.774;8.942;2022-07-24T09:04:42;38.50;55.90
69031;DHT22;56083;48.774;8.942;2022-07-24T09:07:13;38.10;56.60
69031;DHT22;56083;48.774;8.942;2022-07-24T09:09:41;39.50;55.80
69031;DHT22;56083;48.774;8.942;2022-07-24T09:12:16;40.80;52.70
69031;DHT22;56083;48.774;8.942;2022-07-24T09:14:47;41.20;51.80
69031;DHT22;56083;48.774;8.942;2022-07-24T09:17:18;39.10;52.10
69031;DHT22;56083;48.774;8.942;2022-07-24T09:19:53;37.40;55.00
69031;DHT22;56083;48.774;8.942;2022-07-24T09:22:32;36.70;56.80
69031;DHT22;56083;48.774;8.942;2022-07-24T09:27:31;33.60;61.20
69031;DHT22;56083;48.774;8.942;2022-07-24T09:29:57;32.60;63.70
69031;DHT22;56083;48.774;8.942;2022-07-24T09:32:23;32.30;65.70
69031;DHT22;56083;48.774;8.942;2022-07-24T09:34:51;32.70;65.00
69031;DHT22;56083;48.774;8.942;2022-07-24T09:37:18;34.20;63.80
69031;DHT22;56083;48.774;8.942;2022-07-24T09:39:44;36.00;61.00
69031;DHT22;56083;48.774;8.942;2022-07-24T09:42:11;36.50;58.10
69031;DHT22;56083;48.774;8.942;2022-07-24T09:44:37;37.10;57.60
69031;DHT22;56083;48.774;8.942;2022-07-24T09:47:06;38.20;57.00
69031;DHT22;56083;48.774;8.942;2022-07-24T09:49:33;39.40;54.80
69031;DHT22;56083;48.774;8.942;2022-07-24T09:54:33;39.30;52.30
69031;DHT22;56083;48.774;8.942;2022-07-24T09:59:41;39.50;53.20
69031;DHT22;56083;48.774;8.942;2022-07-24T10:02:12;40.40;51.20
69031;DHT22;56083;48.774;8.942;2022-07-24T10:04:41;40.90;50.60
69031;DHT22;56083;48.774;8.942;2022-07-24T10:07:09;41.50;49.90
69031;DHT22;56083;48.774;8.942;2022-07-24T10:09:35;40.20;47.90
69031;DHT22;56083;48.774;8.942;2022-07-24T10:12:13;40.40;48.70
69031;DHT22;56083;48.774;8.942;2022-07-24T10:14:39;39.80;48.80
69031;DHT22;56083;48.774;8.942;2022-07-24T10:17:09;40.30;47.80
69031;DHT22;56083;48.774;8.942;2022-07-24T10:19:43;41.70;48.50
69031;DHT22;56083;48.774;8.942;2022-07-24T10:22:18;42.60;46.50
69031;DHT22;56083;48.774;8.942;2022-07-24T10:27:37;43.00;45.30
69031;DHT22;56083;48.774;8.942;2022-07-24T10:30:10;43.20;43.30
69031;DHT22;56083;48.774;8.942;2022-07-24T10:32:37;42.20;44.00
69031;DHT22;56083;48.774;8.942;2022-07-24T10:35:08;42.60;43.60
69031;DHT22;56083;48.774;8.942;2022-07-24T10:45:34;43.20;42.00
69031;DHT22;56083;48.774;8.942;2022-07-24T10:51:12;41.90;42.20
69031;DHT22;56083;48.774;8.942;2022-07-24T10:53:45;41.60;44.10
69031;DHT22;56083;48.774;8.942;2022-07-24T10:59:35;39.30;46.50
69031;DHT22;56083;48.774;8.942;2022-07-24T11:02:47;37.40;49.10
69031;DHT22;56083;48.774;8.942;2022-07-24T11:05:35;38.30;50.30
69031;DHT22;56083;48.774;8.942;2022-07-24T11:10:54;41.60;44.70
69031;DHT22;56083;48.774;8.942;2022-07-24T11:21:28;38.90;46.60
69031;DHT22;56083;48.774;8.942;2022-07-24T11:26:40;37.10;49.60
69031;DHT22;56083;48.774;8.942;2022-07-24T11:29:14;37.80;50.50
69031;DHT22;56083;48.774;8.942;2022-07-24T11:31:46;38.60;47.80
69031;DHT22;56083;48.774;8.942;2022-07-24T11:34:12;40.10;47.10
69031;DHT22;56083;48.774;8.942;2022-07-24T11:36:46;41.00;45.20
69031;DHT22;56083;48.774;8.942;2022-07-24T11:39:16;42.10;45.50
69031;DHT22;56083;48.774;8.942;2022-07-24T11:41:52;43.90;42.20
69031;DHT22;56083;48.774;8.942;2022-07-24T11:44:27;45.00;41.60
69031;DHT22;56083;48.774;8.942;2022-07-24T11:47:10;45.10;39.60
69031;DHT22;56083;48.774;8.942;2022-07-24T11:50:01;45.00;39.20
69031;DHT22;56083;48.774;8.942;2022-07-24T11:52:36;44.50;40.40
69031;DHT22;56083;48.774;8.942;2022-07-24T11:55:12;44.70;40.10
69031;DHT22;56083;48.774;8.942;2022-07-24T11:57:40;45.70;39.30
69031;DHT22;56083;48.774;8.942;2022-07-24T12:00:12;43.60;38.70
69031;DHT22;56083;48.774;8.942;2022-07-24T12:02:53;41.40;40.70
69031;DHT22;56083;48.774;8.942;2022-07-24T12:05:37;40.00;44.60
69031;DHT22;56083;48.774;8.942;2022-07-24T12:08:15;41.20;43.20
69031;DHT22;56083;48.774;8.942;2022-07-24T12:10:41;42.50;41.60
69031;DHT22;56083;48.774;8.942;2022-07-24T12:13:06;43.20;41.10
69031;DHT22;56083;48.774;8.942;2022-07-24T12:15:38;44.60;39.00
69031;DHT22;56083;48.774;8.942;2022-07-24T12:18:06;44.60;38.50
69031;DHT22;56083;48.774;8.942;2022-07-24T12:20:40;44.70;36.60
69031;DHT22;56083;48.774;8.942;2022-07-24T12:23:08;43.40;38.50
69031;DHT22;56083;48.774;8.942;2022-07-24T12:25:36;43.30;39.40
69031;DHT22;56083;48.774;8.942;2022-07-24T12:28:11;41.40;40.90
69031;DHT22;56083;48.774;8.942;2022-07-24T12:30:44;40.70;41.40
69031;DHT22;56083;48.774;8.942;2022-07-24T12:41:10;37.20;45.70
69031;DHT22;56083;48.774;8.942;2022-07-24T12:46:12;38.90;44.70
69031;DHT22;56083;48.774;8.942;2022-07-24T12:48:38;40.50;42.50
69031;DHT22;56083;48.774;8.942;2022-07-24T12:51:07;41.50;41.20
69031;DHT22;56083;48.774;8.942;2022-07-24T12:53:36;42.90;39.50
69031;DHT22;56083;48.774;8.942;2022-07-24T12:56:04;41.90;40.00
69031;DHT22;56083;48.774;8.942;2022-07-24T12:58:49;41.50;41.90
69031;DHT22;56083;48.774;8.942;2022-07-24T13:01:15;42.10;41.30
69031;DHT22;56083;48.774;8.942;2022-07-24T13:03:41;41.30;41.50
69031;DHT22;56083;48.774;8.942;2022-07-24T13:06:08;42.10;42.30
69031;DHT22;56083;48.774;8.942;2022-07-24T13:08:34;41.90;40.60
69031;DHT22;56083;48.774;8.942;2022-07-24T13:11:00;42.40;41.20
69031;DHT22;56083;48.774;8.942;2022-07-24T13:13:25;42.60;41.50
69031;DHT22;56083;48.774;8.942;2022-07-24T13:15:51;43.20;40.30
69031;DHT22;56083;48.774;8.942;2022-07-24T13:18:17;43.50;40.10
69031;DHT22;56083;48.774;8.942;2022-07-24T13:20:43;43.80;39.30
69031;DHT22;56083;48.774;8.942;2022-07-24T13:23:08;43.90;38.30
69031;DHT22;56083;48.774;8.942;2022-07-24T13:25:34;43.70;39.40
69031;DHT22;56083;48.774;8.942;2022-07-24T13:28:00;44.70;38.60
69031;DHT22;56083;48.774;8.942;2022-07-24T13:30:25;45.70;38.10
69031;DHT22;56083;48.774;8.942;2022-07-24T13:32:51;45.60;37.10
69031;DHT22;56083;48.774;8.942;2022-07-24T13:35:17;45.80;36.80
69031;DHT22;56083;48.774;8.942;2022-07-24T13:37:42;46.00;36.60
69031;DHT22;56083;48.774;8.942;2022-07-24T13:40:09;46.20;36.60
69031;DHT22;56083;48.774;8.942;2022-07-24T13:42:37;46.10;36.10
69031;DHT22;56083;48.774;8.942;2022-07-24T13:45:03;46.60;35.80
69031;DHT22;56083;48.774;8.942;2022-07-24T13:47:29;45.90;35.90
69031;DHT22;56083;48.774;8.942;2022-07-24T13:49:55;44.70;36.80
69031;DHT22;56083;48.774;8.942;2022-07-24T13:52:21;44.80;37.50
69031;DHT22;56083;48.774;8.942;2022-07-24T13:54:46;45.80;36.50
69031;DHT22;56083;48.774;8.942;2022-07-24T13:57:12;46.30;35.30
69031;DHT22;56083;48.774;8.942;2022-07-24T13:59:39;45.10;36.00
69031;DHT22;56083;48.774;8.942;2022-07-24T14:02:04;45.20;36.90
69031;DHT22;56083;48.774;8.942;2022-07-24T14:04:30;44.80;36.40
69031;DHT22;56083;48.774;8.942;2022-07-24T14:06:56;45.40;36.60
69031;DHT22;56083;48.774;8.942;2022-07-24T14:09:23;45.80;35.80
69031;DHT22;56083;48.774;8.942;2022-07-24T14:11:48;45.80;34.70
69031;DHT22;56083;48.774;8.942;2022-07-24T14:14:14;45.80;36.30
69031;DHT22;56083;48.774;8.942;2022-07-24T14:16:40;44.90;35.10
69031;DHT22;56083;48.774;8.942;2022-07-24T14:19:06;45.80;35.00
69031;DHT22;56083;48.774;8.942;2022-07-24T14:21:32;45.60;34.80
69031;DHT22;56083;48.774;8.942;2022-07-24T14:23:59;44.30;35.30
69031;DHT22;56083;48.774;8.942;2022-07-24T14:26:25;43.70;36.60
69031;DHT22;56083;48.774;8.942;2022-07-24T14:28:50;43.10;36.90
69031;DHT22;56083;48.774;8.942;2022-07-24T14:31:16;42.80;37.10
69031;DHT22;56083;48.774;8.942;2022-07-24T14:33:42;43.30;36.70
69031;DHT22;56083;48.774;8.942;2022-07-24T14:36:07;42.50;36.60
69031;DHT22;56083;48.774;8.942;2022-07-24T14:38:33;43.20;36.70
69031;DHT22;56083;48.774;8.942;2022-07-24T14:40:59;44.10;36.10
69031;DHT22;56083;48.774;8.942;2022-07-24T14:43:24;44.30;35.40
69031;DHT22;56083;48.774;8.942;2022-07-24T14:45:50;42.20;36.60
69031;DHT22;56083;48.774;8.942;2022-07-24T14:48:16;42.40;36.10
69031;DHT22;56083;48.774;8.942;2022-07-24T14:50:41;41.30;36.80
69031;DHT22;56083;48.774;8.942;2022-07-24T14:53:07;40.80;38.00
69031;DHT22;56083;48.774;8.942;2022-07-24T14:55:33;40.40;38.20
69031;DHT22;56083;48.774;8.942;2022-07-24T14:57:58;40.00;39.20
69031;DHT22;56083;48.774;8.942;2022-07-24T15:00:24;40.20;38.60
69031;DHT22;56083;48.774;8.942;2022-07-24T15:02:50;41.00;38.30
69031;DHT22;56083;48.774;8.942;2022-07-24T15:05:15;41.50;37.70
69031;DHT22;56083;48.774;8.942;2022-07-24T15:07:41;42.70;36.70
69031;DHT22;56083;48.774;8.942;2022-07-24T15:10:07;42.50;36.80
69031;DHT22;56083;48.774;8.942;2022-07-24T15:12:33;43.00;36.70
69031;DHT22;56083;48.774;8.942;2022-07-24T15:14:58;43.80;35.30
69031;DHT22;56083;48.774;8.942;2022-07-24T15:17:24;44.40;34.50
69031;DHT22;56083;48.774;8.942;2022-07-24T15:19:50;44.10;34.50
69031;DHT22;56083;48.774;8.942;2022-07-24T15:22:15;43.70;34.30
69031;DHT22;56083;48.774;8.942;2022-07-24T15:24:41;42.70;35.40
69031;DHT22;56083;48.774;8.942;2022-07-24T15:27:07;41.90;35.00
69031;DHT22;56083;48.774;8.942;2022-07-24T15:29:32;41.70;35.80
69031;DHT22;56083;48.774;8.942;2022-07-24T15:31:58;42.30;36.20
69031;DHT22;56083;48.774;8.942;2022-07-24T15:34:24;42.20;36.00
69031;DHT22;56083;48.774;8.942;2022-07-24T15:36:50;42.70;35.70
69031;DHT22;56083;48.774;8.942;2022-07-24T15:39:15;42.70;36.20
69031;DHT22;56083;48.774;8.942;2022-07-24T15:41:41;42.30;36.50
69031;DHT22;56083;48.774;8.942;2022-07-24T15:44:07;42.50;37.30
69031;DHT22;56083;48.774;8.942;2022-07-24T15:46:33;42.30;37.90
69031;DHT22;56083;48.774;8.942;2022-07-24T15:48:59;42.40;37.60
69031;DHT22;56083;48.774;8.942;2022-07-24T15:51:25;42.60;37.60
69031;DHT22;56083;48.774;8.942;2022-07-24T15:53:50;41.90;37.70
69031;DHT22;56083;48.774;8.942;2022-07-24T15:56:16;40.70;38.20
69031;DHT22;56083;48.774;8.942;2022-07-24T15:58:42;40.20;39.20
69031;DHT22;56083;48.774;8.942;2022-07-24T16:01:07;39.50;39.90
69031;DHT22;56083;48.774;8.942;2022-07-24T16:03:33;38.20;41.20
69031;DHT22;56083;48.774;8.942;2022-07-24T16:05:59;37.60;42.10
69031;DHT22;56083;48.774;8.942;2022-07-24T16:08:24;37.70;42.70
69031;DHT22;56083;48.774;8.942;2022-07-24T16:10:50;37.40;42.30
69031;DHT22;56083;48.774;8.942;2022-07-24T16:13:17;37.60;42.30
69031;DHT22;56083;48.774;8.942;2022-07-24T16:15:42;38.00;42.40
69031;DHT22;56083;48.774;8.942;2022-07-24T16:18:08;37.30;42.20